Branch, Minnesota
Current Conditions -  °F | °C
As of 3:36 PM on Friday 19 Dec 2014 (Local Time) from KROS Reporting Station
Overcast Overcast  
Wind Chill: 18°   Ceiling: 1500
Heat Index: 27°   Visibility: 10mi
Dew Point: 22°   Wind: 8mph
Humidity: 83%   Direction: 140°SE
Pressure: 30.19"   Gusts: NA
Location:  45.5343°N, 92.8964°W
Report Text: KROS 192136Z AUTO 14007KT 10SM OVC015 M03/M05 A3019 RMK AO2 T10301055
Loading
Personal Weather Stations






























Interactive Weather Map New forecast layout! Learn more

10-Day Weather Forecast

Advertisements
Track Severe Weather on mobile